Time;durP1;ratioP1;P1;durP2;ratioP2;P2;SDS_P1;SDS_P2;PMS_P1;PMS_P2;Temp;Humidity;BMP_temperature;BMP_pressure;BME280_temperature;BME280_humidity;BME280_pressure;Samples;Min_cycle;Max_cycle;Signal;HPM_P1;HPM_P2
2023/06/03 00:00:04;;;;;;;0.88;0.55;;;;;;;16.52;100.00;97340.72;5096066;28;20024;-75
2023/06/03 00:02:29;;;;;;;0.60;0.52;;;;;;;16.55;100.00;97339.63;5113087;28;20027;-75
2023/06/03 00:04:55;;;;;;;0.75;0.70;;;;;;;16.54;100.00;97338.78;5114396;28;20462;-75
2023/06/03 00:07:20;;;;;;;1.05;0.68;;;;;;;16.48;100.00;97339.28;5113235;28;20031;-75
2023/06/03 00:09:46;;;;;;;0.65;0.63;;;;;;;16.47;100.00;97345.69;5114163;28;20031;-75
2023/06/03 00:12:11;;;;;;;1.48;1.00;;;;;;;16.54;100.00;97346.88;5095922;28;20557;-75
2023/06/03 00:14:37;;;;;;;0.68;0.60;;;;;;;16.59;100.00;97341.91;5112783;28;20157;-75
2023/06/03 00:17:03;;;;;;;1.52;0.55;;;;;;;16.54;100.00;97333.38;5114186;28;20410;-75
2023/06/03 00:19:28;;;;;;;2.63;0.65;;;;;;;16.54;100.00;97332.47;5113890;28;20047;-74
2023/06/03 00:21:54;;;;;;;0.70;0.70;;;;;;;16.53;100.00;97331.63;5112962;28;20031;-75
2023/06/03 00:24:23;;;;;;;1.48;0.73;;;;;;;16.51;100.00;97330.91;5112826;28;20030;-75
2023/06/03 00:26:50;;;;;;;1.75;1.23;;;;;;;16.46;100.00;97327.75;5113040;28;20023;-76
2023/06/03 00:29:15;;;;;;;1.00;0.93;;;;;;;16.51;100.00;97328.22;5095357;28;20032;-76
2023/06/03 00:31:41;;;;;;;1.65;1.45;;;;;;;16.51;100.00;97330.06;5114017;28;20030;-76
2023/06/03 00:34:06;;;;;;;1.38;0.70;;;;;;;16.44;100.00;97321.66;5113529;28;20069;-75
2023/06/03 00:36:32;;;;;;;1.42;1.15;;;;;;;16.42;100.00;97325.47;5113777;28;20475;-75
2023/06/03 00:38:57;;;;;;;0.93;0.80;;;;;;;16.38;100.00;97321.34;5112585;28;20019;-73
2023/06/03 00:41:23;;;;;;;7.32;1.38;;;;;;;16.34;100.00;97314.50;5113502;28;20023;-76
2023/06/03 00:43:49;;;;;;;2.17;1.25;;;;;;;16.33;100.00;97313.66;5094598;28;20051;-73
2023/06/03 00:46:18;;;;;;;1.30;1.02;;;;;;;16.28;100.00;97315.91;5112166;28;20020;-75
2023/06/03 00:48:43;;;;;;;0.80;0.80;;;;;;;16.30;100.00;97308.53;5112604;28;20012;-76
2023/06/03 00:51:09;;;;;;;3.28;1.13;;;;;;;16.32;100.00;97309.25;5111970;28;20069;-74
2023/06/03 00:53:35;;;;;;;10.77;1.17;;;;;;;16.30;100.00;97302.28;5112334;28;20119;-74
2023/06/03 00:56:01;;;;;;;2.30;0.85;;;;;;;16.31;100.00;97304.81;5112280;28;20051;-75
2023/06/03 00:58:27;;;;;;;0.50;0.50;;;;;;;16.36;100.00;97301.72;5111831;28;20032;-74
2023/06/03 01:00:52;;;;;;;1.52;1.35;;;;;;;16.36;100.00;97297.19;5112209;28;20034;-74
2023/06/03 01:03:19;;;;;;;1.35;0.80;;;;;;;16.38;100.00;97297.91;5111821;28;20028;-74
2023/06/03 01:05:48;;;;;;;1.25;0.98;;;;;;;16.34;100.00;97295.59;5113274;28;20045;-74
2023/06/03 01:08:38;;;;;;;0.40;0.40;;;;;;;16.24;100.00;97295.59;5111884;28;20463;-74
2023/06/03 01:11:04;;;;;;;1.15;0.60;;;;;;;16.17;100.00;97280.91;5111830;28;20050;-76
2023/06/03 01:13:46;;;;;;;0.85;0.82;;;;;;;16.16;100.00;97273.78;5112840;28;20451;-75
2023/06/03 01:16:13;;;;;;;0.57;0.50;;;;;;;16.16;100.00;97290.00;5112060;28;20039;-75
2023/06/03 01:18:38;;;;;;;2.53;0.90;;;;;;;16.16;100.00;97281.91;5094572;28;20046;-75
2023/06/03 01:21:05;;;;;;;1.95;0.68;;;;;;;16.19;100.00;97290.59;5094651;28;20027;-75
2023/06/03 01:23:34;;;;;;;0.98;0.93;;;;;;;16.20;100.00;97291.44;5111626;28;20020;-75
2023/06/03 01:26:01;;;;;;;0.70;0.52;;;;;;;16.16;100.00;97290.84;5111651;28;20486;-75
2023/06/03 01:28:28;;;;;;;2.47;0.70;;;;;;;16.18;100.00;97274.53;5111253;28;20031;-75
2023/06/03 01:30:57;;;;;;;2.70;1.90;;;;;;;16.15;100.00;97280.22;5094531;28;20111;-75
2023/06/03 01:33:24;;;;;;;0.60;0.60;;;;;;;16.11;100.00;97284.16;5094192;28;20035;-75
2023/06/03 01:35:52;;;;;;;0.52;0.52;;;;;;;16.00;100.00;97287.78;5111199;28;20023;-76
2023/06/03 01:38:18;;;;;;;2.80;1.20;;;;;;;16.02;100.00;97279.56;5111224;28;20031;-75
2023/06/03 01:40:44;;;;;;;0.45;0.45;;;;;;;16.07;100.00;97288.97;5111233;28;20528;-74
2023/06/03 01:43:10;;;;;;;0.82;0.77;;;;;;;16.05;100.00;97279.31;5111330;28;20023;-75
2023/06/03 01:45:35;;;;;;;1.20;0.50;;;;;;;16.04;100.00;97278.44;5111942;28;20065;-75
2023/06/03 01:48:01;;;;;;;0.90;0.80;;;;;;;16.07;100.00;97288.97;5112458;28;20103;-75
2023/06/03 01:50:27;;;;;;;0.52;0.52;;;;;;;16.12;100.00;97293.94;5112098;28;20032;-75
2023/06/03 01:52:53;;;;;;;1.27;0.95;;;;;;;16.04;100.00;97282.97;5112058;28;20031;-75
2023/06/03 01:55:18;;;;;;;1.85;0.80;;;;;;;16.01;100.00;97281.41;5111995;27;20031;-75
2023/06/03 01:57:46;;;;;;;1.55;1.00;;;;;;;16.06;100.00;97286.38;5111598;28;20032;-75
2023/06/03 02:00:13;;;;;;;1.02;0.93;;;;;;;16.02;100.00;97282.28;5110880;28;20031;-75
2023/06/03 02:02:39;;;;;;;1.60;1.00;;;;;;;16.03;100.00;97278.56;5111054;28;20059;-75
2023/06/03 02:05:05;;;;;;;5.63;1.00;;;;;;;16.08;100.00;97293.38;5111042;28;20548;-75
2023/06/03 02:07:30;;;;;;;1.38;1.27;;;;;;;16.14;100.00;97295.53;5111847;28;20032;-75
2023/06/03 02:09:56;;;;;;;1.58;0.95;;;;;;;16.18;100.00;97304.22;5111807;28;20027;-75
2023/06/03 02:12:23;;;;;;;2.10;1.10;;;;;;;16.10;100.00;97301.31;5111846;28;20085;-75
2023/06/03 02:14:53;;;;;;;1.05;0.73;;;;;;;16.12;100.00;97293.94;5110698;28;20398;-75
2023/06/03 02:17:24;;;;;;;1.38;0.90;;;;;;;16.16;100.00;97306.19;5110729;28;20068;-74
2023/06/03 02:19:50;;;;;;;0.57;0.57;;;;;;;16.11;100.00;97314.69;5093726;28;20031;-75
2023/06/03 02:22:16;;;;;;;0.90;0.90;;;;;;;16.16;100.00;97311.59;5110555;28;20038;-75
2023/06/03 02:24:41;;;;;;;0.85;0.75;;;;;;;16.11;100.00;97311.16;5110563;28;20027;-75
2023/06/03 02:27:08;;;;;;;1.95;0.95;;;;;;;16.02;100.00;97311.94;5093359;28;20088;-75
2023/06/03 02:29:34;;;;;;;0.75;0.40;;;;;;;15.96;100.00;97325.97;5111456;28;20032;-75
2023/06/03 02:32:01;;;;;;;1.65;0.90;;;;;;;16.00;100.00;97322.00;5110456;28;20027;-75
2023/06/03 02:34:26;;;;;;;1.13;0.77;;;;;;;15.99;100.00;97331.09;5111194;28;20028;-75
2023/06/03 02:36:52;;;;;;;0.50;0.50;;;;;;;15.97;100.00;97333.91;5110304;28;20152;-75
2023/06/03 02:39:18;;;;;;;0.50;0.50;;;;;;;15.90;100.00;97331.91;5110329;28;20114;-75
2023/06/03 02:41:46;;;;;;;5.78;0.88;;;;;;;15.92;100.00;97327.22;5110319;28;20028;-75
2023/06/03 02:44:12;;;;;;;1.35;1.02;;;;;;;15.97;100.00;97330.38;5106059;28;20039;-75
2023/06/03 02:46:38;;;;;;;0.82;0.52;;;;;;;15.94;100.00;97334.19;5109785;28;20023;-75
2023/06/03 02:49:05;;;;;;;1.65;1.55;;;;;;;15.89;100.00;97327.50;5109907;28;20022;-74
2023/06/03 02:51:30;;;;;;;0.82;0.68;;;;;;;15.87;100.00;97337.56;5109850;28;20364;-75
2023/06/03 02:53:56;;;;;;;1.02;0.73;;;;;;;15.81;100.00;97330.84;5093040;28;20164;-74
2023/06/03 02:56:22;;;;;;;0.65;0.65;;;;;;;15.82;100.00;97335.25;5110062;28;20110;-74
2023/06/03 02:58:48;;;;;;;0.88;0.70;;;;;;;15.79;100.00;97340.06;5110061;28;20394;-75
2023/06/03 03:01:14;;;;;;;0.77;0.63;;;;;;;15.83;100.00;97346.91;5093010;28;20027;-74
2023/06/03 03:03:40;;;;;;;2.67;0.80;;;;;;;15.87;100.00;97348.34;5109796;28;20030;-74
2023/06/03 03:06:06;;;;;;;1.27;0.90;;;;;;;15.83;100.00;97346.91;5111135;28;20016;-75
2023/06/03 03:08:35;;;;;;;1.77;0.98;;;;;;;15.84;100.00;97354.88;5113089;28;20488;-75
2023/06/03 03:11:01;;;;;;;1.65;1.00;;;;;;;15.86;100.00;97365.53;5115564;28;20400;-75
2023/06/03 03:13:26;;;;;;;2.47;1.33;;;;;;;15.90;100.00;97375.06;5115287;27;20024;-75
2023/06/03 03:15:52;;;;;;;2.35;0.82;;;;;;;15.94;100.00;97371.97;5115267;28;20051;-75
2023/06/03 03:18:17;;;;;;;1.30;1.20;;;;;;;16.00;100.00;97373.25;5115194;28;20024;-74
2023/06/03 03:20:43;;;;;;;2.20;0.88;;;;;;;15.99;100.00;97374.28;5115035;28;20052;-74
2023/06/03 03:23:12;;;;;;;1.50;1.02;;;;;;;16.05;100.00;97389.94;5113943;28;20406;-74
2023/06/03 03:25:37;;;;;;;2.65;1.25;;;;;;;16.09;100.00;97394.91;5113534;28;20015;-75
2023/06/03 03:28:03;;;;;;;3.45;1.40;;;;;;;16.14;100.00;97406.19;5115223;28;20114;-75
2023/06/03 03:30:29;;;;;;;0.40;0.38;;;;;;;16.21;100.00;97401.94;5113644;28;20102;-75
2023/06/03 03:32:58;;;;;;;1.38;0.82;;;;;;;16.20;100.00;97400.25;5115313;28;20027;-75
2023/06/03 03:35:25;;;;;;;1.10;1.00;;;;;;;16.23;100.00;97396.44;5113959;28;20608;-75
2023/06/03 03:38:02;;;;;;;0.60;0.60;;;;;;;16.27;100.00;97392.47;5096391;28;20034;-75
2023/06/03 03:40:31;;;;;;;0.52;0.52;;;;;;;16.26;100.00;97398.88;5113616;28;20494;-75
2023/06/03 03:42:58;;;;;;;2.95;1.30;;;;;;;16.16;100.00;97392.53;5113456;28;20031;-76
2023/06/03 03:45:30;;;;;;;2.17;1.00;;;;;;;16.17;100.00;97392.44;5113253;28;20074;-74
2023/06/03 03:48:06;;;;;;;1.38;1.23;;;;;;;16.26;100.00;97401.56;5096208;28;20047;-75
2023/06/03 03:50:49;;;;;;;2.47;1.40;;;;;;;16.27;100.00;97389.78;5096473;28;20023;-75
2023/06/03 03:53:15;;;;;;;;;;;;;;;16.26;100.00;97380.81;5113685;28;20028;-75
2023/06/03 03:55:43;;;;;;;2.97;0.82;;;;;;;16.18;100.00;97374.41;5113185;28;19919;-75
2023/06/03 03:58:29;;;;;;;0.77;0.70;;;;;;;16.25;100.00;97376.41;5112974;28;20087;-75
2023/06/03 04:00:59;;;;;;;2.30;1.23;;;;;;;16.32;100.00;97376.72;5114420;28;20480;-75
2023/06/03 04:03:26;;;;;;;1.05;0.80;;;;;;;16.39;100.00;97377.91;5113407;28;20084;-75
2023/06/03 04:05:52;;;;;;;1.75;0.55;;;;;;;16.40;100.00;97376.91;5113168;28;20020;-75
2023/06/03 04:08:45;;;;;;;1.13;0.73;;;;;;;16.47;100.00;97385.31;5112800;28;20378;-75
2023/06/03 04:11:25;;;;;;;2.42;0.98;;;;;;;16.44;100.00;97381.06;5102531;28;20074;-76
2023/06/03 04:13:51;;;;;;;5.05;0.85;;;;;;;16.51;100.00;97384.06;5096183;28;20027;-74
2023/06/03 04:16:42;;;;;;;1.60;0.80;;;;;;;16.52;100.00;97377.69;5112557;28;20531;-75
2023/06/03 04:19:15;;;;;;;0.45;0.43;;;;;;;16.53;100.00;97369.44;5100404;28;20130;-75
2023/06/03 04:21:41;;;;;;;0.80;0.50;;;;;;;16.58;100.00;97359.09;5113117;28;20027;-75
2023/06/03 04:24:07;;;;;;;1.55;1.20;;;;;;;16.62;100.00;97363.25;5112827;28;20478;-74
2023/06/03 04:26:34;;;;;;;1.10;0.98;;;;;;;16.64;100.00;97350.44;5112981;28;20031;-75
2023/06/03 04:29:00;;;;;;;1.77;0.73;;;;;;;16.69;100.00;97352.75;5112416;28;20077;-75
2023/06/03 04:31:25;;;;;;;2.95;1.30;;;;;;;16.70;100.00;97343.66;5112691;28;20479;-75
2023/06/03 04:33:51;;;;;;;5.40;1.90;;;;;;;16.66;100.00;97361.13;5112644;28;20027;-76
2023/06/03 04:36:16;;;;;;;1.08;0.98;;;;;;;16.71;100.00;97364.25;5112267;28;20028;-75
2023/06/03 04:38:43;;;;;;;3.10;1.35;;;;;;;16.74;100.00;97364.84;5113716;28;20042;-75
2023/06/03 04:41:14;;;;;;;3.67;1.48;;;;;;;16.82;100.00;97369.56;5113819;28;20031;-75
2023/06/03 04:43:40;;;;;;;0.47;0.43;;;;;;;16.78;100.00;97360.88;5112220;28;20039;-75
2023/06/03 04:46:06;;;;;;;5.07;1.00;;;;;;;16.82;100.00;97358.78;5112495;28;20490;-75
2023/06/03 04:48:33;;;;;;;0.98;0.73;;;;;;;16.86;100.00;97365.59;5112116;28;20027;-75
2023/06/03 04:51:01;;;;;;;2.35;1.33;;;;;;;16.94;100.00;97362.22;5112581;28;20023;-76
2023/06/03 04:53:28;;;;;;;0.38;0.38;;;;;;;16.96;100.00;97357.50;5095371;28;20042;-76
2023/06/03 04:55:53;;;;;;;2.05;1.48;;;;;;;16.95;100.00;97353.13;5095216;28;20096;-76
2023/06/03 04:58:19;;;;;;;1.17;0.90;;;;;;;16.95;100.00;97345.00;5113040;28;20024;-76
2023/06/03 05:00:48;;;;;;;2.72;1.48;;;;;;;17.00;100.00;97334.63;5113349;28;20094;-76
2023/06/03 05:03:16;;;;;;;1.15;1.02;;;;;;;17.09;100.00;97341.88;5112022;28;20505;-76
2023/06/03 05:05:43;;;;;;;0.88;0.70;;;;;;;17.15;100.00;97349.44;5111967;28;20055;-76
2023/06/03 05:08:12;;;;;;;1.10;0.77;;;;;;;17.21;100.00;97343.47;5112063;28;20023;-77
2023/06/03 05:10:37;;;;;;;0.50;0.50;;;;;;;17.20;100.00;97352.56;5111882;28;20035;-76
2023/06/03 05:13:07;;;;;;;3.75;0.82;;;;;;;17.19;100.00;97356.28;5094877;28;20536;-76
2023/06/03 05:15:33;;;;;;;1.75;0.98;;;;;;;17.28;100.00;97355.44;5111563;28;20054;-77
2023/06/03 05:18:02;;;;;;;2.47;1.42;;;;;;;17.34;100.00;97344.06;5111809;28;20035;-75
2023/06/03 05:20:28;;;;;;;1.60;1.02;;;;;;;17.49;100.00;97355.28;5111883;28;20024;-77
2023/06/03 05:22:54;;;;;;;2.58;0.90;;;;;;;17.57;100.00;97350.03;5111633;28;20538;-76
2023/06/03 05:25:20;;;;;;;0.75;0.60;;;;;;;17.74;100.00;97349.34;5111519;28;20133;-77
2023/06/03 05:27:45;;;;;;;1.63;1.05;;;;;;;17.87;100.00;97344.50;5112524;28;20027;-77
2023/06/03 05:30:11;;;;;;;1.80;1.13;;;;;;;17.96;100.00;97340.06;5111515;28;20031;-77
2023/06/03 05:32:37;;;;;;;0.70;0.70;;;;;;;18.02;100.00;97339.47;5111149;28;20039;-73
2023/06/03 05:35:03;;;;;;;3.25;2.28;;;;;;;18.00;100.00;97322.50;5094327;28;20406;-76
2023/06/03 05:37:28;;;;;;;2.80;0.95;;;;;;;17.95;100.00;97324.78;5111203;28;20030;-75
2023/06/03 05:39:54;;;;;;;0.70;0.70;;;;;;;17.94;100.00;97321.22;5112582;28;20456;-75
2023/06/03 05:42:19;;;;;;;3.05;1.63;;;;;;;18.04;100.00;97326.63;5111251;28;20016;-75
2023/06/03 05:44:45;;;;;;;1.45;0.95;;;;;;;18.17;100.00;97332.59;5112111;28;20418;-77
2023/06/03 05:47:10;;;;;;;0.98;0.70;;;;;;;18.19;100.00;97327.88;5094064;28;20127;-75
2023/06/03 05:49:36;;;;;;;2.15;1.00;;;;;;;18.25;100.00;97333.53;5111920;28;20028;-75
2023/06/03 05:52:02;;;;;;;0.55;0.50;;;;;;;18.29;100.00;97325.97;5112338;28;20024;-75
2023/06/03 05:54:28;;;;;;;2.03;1.20;;;;;;;18.32;100.00;97314.84;5110390;28;20108;-75
2023/06/03 05:56:57;;;;;;;0.68;0.68;;;;;;;18.50;100.00;97318.50;5110558;28;20032;-75
2023/06/03 05:59:23;;;;;;;2.53;1.30;;;;;;;18.56;100.00;97307.06;5093867;28;20028;-75
2023/06/03 06:01:49;;;;;;;3.80;1.52;;;;;;;18.63;100.00;97300.06;5110623;28;20406;-74
2023/06/03 06:04:14;;;;;;;2.92;1.55;;;;;;;18.76;100.00;97307.84;5093653;28;20067;-76
2023/06/03 06:06:40;;;;;;;1.30;1.17;;;;;;;18.79;100.00;97297.56;5093337;28;20112;-76
2023/06/03 06:09:05;;;;;;;2.03;1.83;;;;;;;18.79;100.00;97297.56;5110475;28;20023;-75
2023/06/03 06:11:31;;;;;;;3.40;1.20;;;;;;;18.91;100.00;97296.34;5110346;28;20070;-76
2023/06/03 06:13:56;;;;;;;1.88;1.15;;;;;;;18.94;100.00;97289.75;5111826;28;20043;-77
2023/06/03 06:16:22;;;;;;;3.13;1.73;;;;;;;18.85;100.00;97286.09;5111727;28;20487;-76
2023/06/03 06:18:48;;;;;;;2.75;1.80;;;;;;;18.77;100.00;97291.41;5093145;28;20031;-77
2023/06/03 06:21:15;;;;;;;2.83;1.52;;;;;;;18.98;100.00;97298.44;5111781;28;20024;-78
2023/06/03 06:23:42;;;;;;;5.28;2.25;;;;;;;19.22;100.00;97299.53;5110079;28;20027;-76
2023/06/03 06:26:08;;;;;;;0.77;0.77;;;;;;;19.29;100.00;97284.31;5093234;28;20026;-75
2023/06/03 06:28:36;;;;;;;1.15;1.05;;;;;;;19.60;100.00;97273.09;5110562;28;20020;-77
2023/06/03 06:31:06;;;;;;;2.13;1.50;;;;;;;19.86;100.00;97263.97;5093417;28;20019;-76
2023/06/03 06:33:38;;;;;;;0.88;0.85;;;;;;;19.82;100.00;97254.44;5110305;28;20059;-75
2023/06/03 06:36:15;;;;;;;0.60;0.57;;;;;;;20.28;100.00;97244.19;5102207;28;20016;-75
2023/06/03 06:38:40;;;;;;;0.60;0.60;;;;;;;20.87;100.00;97229.63;5110146;28;20055;-75
2023/06/03 06:41:06;;;;;;;2.00;1.42;;;;;;;21.34;100.00;97221.75;5110232;28;20347;-75
2023/06/03 06:43:33;;;;;;;0.95;0.90;;;;;;;21.57;100.00;97217.31;5110676;28;20085;-74
2023/06/03 06:45:59;;;;;;;5.78;1.20;;;;;;;21.83;100.00;97217.09;5092885;28;20115;-77
2023/06/03 06:48:24;;;;;;;1.55;1.13;;;;;;;21.85;100.00;97210.47;5109962;28;20084;-76
2023/06/03 06:50:56;;;;;;;1.58;1.27;;;;;;;22.30;100.00;97218.03;5108397;28;20035;-76
2023/06/03 06:53:24;;;;;;;4.30;0.80;;;;;;;22.68;100.00;97211.75;5084265;28;20028;-78
2023/06/03 06:55:56;;;;;;;2.20;1.02;;;;;;;22.90;100.00;97209.25;5106870;28;20660;-75
2023/06/03 06:58:22;;;;;;;;;;;;;;;24.06;100.00;97200.59;5107931;28;20035;-76
2023/06/03 07:00:48;;;;;;;4.25;2.35;;;;;;;25.43;100.00;97186.13;5108157;28;20366;-75
2023/06/03 07:03:21;;;;;;;1.70;1.60;;;;;;;26.32;100.00;97182.63;5089964;28;20040;-76
2023/06/03 07:05:52;;;;;;;2.78;1.98;;;;;;;27.12;100.00;97180.03;5106802;28;20024;-74
2023/06/03 07:08:17;;;;;;;12.40;2.80;;;;;;;28.74;90.62;97184.03;5106905;28;20054;-75
2023/06/03 07:10:43;;;;;;;2.35;1.98;;;;;;;29.51;90.92;97192.09;5107141;28;20085;-76
2023/06/03 07:13:08;;;;;;;1.15;0.95;;;;;;;29.97;84.47;97191.78;5108184;28;20031;-75
2023/06/03 07:15:39;;;;;;;1.58;1.38;;;;;;;30.13;78.21;97182.94;5086321;28;20106;-75
2023/06/03 07:18:04;;;;;;;0.43;0.30;;;;;;;29.53;79.75;97179.78;5105963;28;20027;-75
2023/06/03 07:20:33;;;;;;;0.50;0.50;;;;;;;29.61;79.11;97186.97;5107438;28;20574;-77
2023/06/03 07:22:59;;;;;;;1.27;1.17;;;;;;;29.46;82.36;97194.69;5109497;28;20110;-77
2023/06/03 07:25:45;;;;;;;1.50;1.40;;;;;;;28.72;87.17;97195.28;5111114;28;20098;-76
2023/06/03 07:28:15;;;;;;;2.17;0.70;;;;;;;26.10;96.87;97198.28;5109503;28;20543;-77
2023/06/03 07:30:42;;;;;;;1.13;1.00;;;;;;;26.20;99.94;97215.28;5110877;28;20030;-77
2023/06/03 07:33:20;;;;;;;1.00;0.50;;;;;;;26.37;100.00;97215.78;5109573;28;20118;-77
2023/06/03 07:35:46;;;;;;;1.45;0.82;;;;;;;26.19;100.00;97223.69;5092623;28;20402;-77
2023/06/03 07:38:23;;;;;;;2.58;1.35;;;;;;;26.52;100.00;97230.22;5109473;28;20035;-78
2023/06/03 07:40:49;;;;;;;0.80;0.80;;;;;;;26.35;100.00;97232.47;5109583;28;20023;-78
2023/06/03 07:43:14;;;;;;;1.10;1.00;;;;;;;26.05;100.00;97228.22;5092462;28;20023;-77
2023/06/03 07:45:40;;;;;;;0.68;0.68;;;;;;;25.92;100.00;97230.84;5109684;28;20040;-78
2023/06/03 07:48:07;;;;;;;1.90;1.08;;;;;;;25.84;100.00;97239.22;5109511;28;20024;-78
2023/06/03 07:50:33;;;;;;;0.60;0.50;;;;;;;25.76;100.00;97244.84;5109634;28;20477;-77
2023/06/03 07:53:05;;;;;;;0.40;0.40;;;;;;;25.08;100.00;97251.69;5109526;28;20026;-77
2023/06/03 07:55:39;;;;;;;4.30;1.15;;;;;;;25.56;100.00;97265.72;5112155;28;20030;-78
2023/06/03 07:58:05;;;;;;;1.95;0.88;;;;;;;25.98;100.00;97273.91;5113204;28;20517;-78
2023/06/03 08:00:30;;;;;;;0.55;0.40;;;;;;;26.85;100.00;97274.38;5113208;28;20023;-78
2023/06/03 08:02:56;;;;;;;0.90;0.63;;;;;;;27.77;100.00;97266.44;5113306;28;20093;-78
2023/06/03 08:05:31;;;;;;;0.70;0.50;;;;;;;27.68;100.00;97264.94;5112847;28;20026;-78
2023/06/03 08:07:56;;;;;;;1.30;0.90;;;;;;;27.67;100.00;97252.25;5113118;28;20398;-78
2023/06/03 08:10:24;;;;;;;1.52;1.13;;;;;;;27.78;100.00;97255.22;5112967;28;20030;-79
2023/06/03 08:12:50;;;;;;;1.05;0.68;;;;;;;26.34;100.00;97243.63;5113107;28;20025;-78
2023/06/03 08:15:27;;;;;;;0.75;0.75;;;;;;;26.21;100.00;97260.84;5112873;28;20406;-78
2023/06/03 08:17:53;;;;;;;0.38;0.38;;;;;;;24.98;100.00;97251.13;5113053;28;20050;-78
2023/06/03 08:20:25;;;;;;;0.45;0.45;;;;;;;24.77;100.00;97256.53;5112783;28;20470;-78
2023/06/03 08:22:51;;;;;;;1.25;0.60;;;;;;;24.71;100.00;97277.28;5113539;28;20467;-78
2023/06/03 08:25:17;;;;;;;9.77;6.60;;;;;;;24.44;100.00;97269.75;5095713;28;20026;-78
2023/06/03 08:27:43;;;;;;;11.73;6.38;;;;;;;24.83;100.00;97277.69;5112977;28;20395;-78
2023/06/03 08:30:12;;;;;;;11.10;6.18;;;;;;;25.22;100.00;97280.94;5112492;28;20479;-78
2023/06/03 08:32:38;;;;;;;7.22;5.78;;;;;;;25.68;100.00;97272.38;5112862;28;20034;-79
2023/06/03 08:35:05;;;;;;;11.07;6.53;;;;;;;25.85;100.00;97273.78;5113222;28;20028;-78
2023/06/03 08:37:32;;;;;;;9.30;6.03;;;;;;;25.84;100.00;97274.88;5095785;28;20463;-79
2023/06/03 08:39:58;;;;;;;13.07;6.20;;;;;;;25.96;100.00;97267.78;5112562;28;20471;-78
2023/06/03 08:42:30;;;;;;;10.98;6.05;;;;;;;26.08;100.00;97255.25;5112166;28;20032;-78
2023/06/03 08:45:02;;;;;;;15.23;5.30;;;;;;;25.96;100.00;97259.56;5112439;28;20118;-79
2023/06/03 08:47:58;;;;;;;6.68;5.43;;;;;;;26.42;100.00;97272.81;5113387;28;20043;-76
2023/06/03 08:50:24;;;;;;;7.55;5.57;;;;;;;26.56;100.00;97258.97;5113227;28;20035;-77
2023/06/03 08:52:52;;;;;;;11.30;6.18;;;;;;;26.89;100.00;97265.50;5095396;28;20023;-77
2023/06/03 08:55:18;;;;;;;10.80;5.97;;;;;;;27.32;100.00;97268.84;5113171;28;20404;-77
2023/06/03 08:58:02;;;;;;;7.80;5.05;;;;;;;27.58;100.00;97259.00;5112270;28;20032;-77
2023/06/03 09:00:28;;;;;;;17.27;6.20;;;;;;;27.84;96.71;97253.56;5113095;28;20090;-77
2023/06/03 09:02:54;;;;;;;5.53;4.93;;;;;;;27.89;95.58;97245.50;5112190;28;20023;-77
2023/06/03 09:05:20;;;;;;;7.60;4.97;;;;;;;27.68;95.58;97257.56;5094405;28;20552;-77
2023/06/03 09:07:47;;;;;;;8.23;5.13;;;;;;;28.30;92.44;97254.41;5112164;28;20027;-77
2023/06/03 09:10:17;;;;;;;12.35;5.43;;;;;;;28.39;90.47;97250.38;5112065;27;20034;-77
2023/06/03 09:12:47;;;;;;;8.65;5.25;;;;;;;28.57;88.18;97244.22;5112058;28;20455;-77
2023/06/03 09:15:16;;;;;;;10.43;4.93;;;;;;;28.04;88.47;97232.38;5111901;28;20031;-77
2023/06/03 09:17:42;;;;;;;9.50;5.30;;;;;;;28.10;87.91;97236.22;5112038;28;20028;-78
2023/06/03 09:20:09;;;;;;;6.10;4.43;;;;;;;28.88;82.26;97227.00;5111810;28;20031;-78
2023/06/03 09:22:36;;;;;;;7.95;4.90;;;;;;;28.52;82.65;97216.47;5111665;28;20513;-78
2023/06/03 09:25:02;;;;;;;7.13;5.35;;;;;;;29.46;82.29;97236.06;5094562;28;20531;-77
2023/06/03 09:27:27;;;;;;;18.58;5.30;;;;;;;29.92;79.14;97227.50;5111389;28;20039;-77
2023/06/03 09:29:54;;;;;;;8.05;4.95;;;;;;;29.38;76.87;97206.81;5111834;28;20394;-75
2023/06/03 09:32:20;;;;;;;8.20;5.07;;;;;;;29.38;82.59;97223.38;5112498;28;20486;-76
2023/06/03 09:34:46;;;;;;;8.25;5.15;;;;;;;29.99;72.90;97217.25;5111228;28;20035;-77
2023/06/03 09:37:12;;;;;;;7.50;4.70;;;;;;;32.21;62.02;97224.66;5111267;28;20031;-77
2023/06/03 09:39:38;;;;;;;7.25;5.78;;;;;;;32.39;59.58;97220.13;5111028;28;20031;-77
2023/06/03 09:42:04;;;;;;;7.07;4.88;;;;;;;31.18;62.32;97201.13;5111262;28;20626;-78
2023/06/03 09:44:49;;;;;;;6.90;4.93;;;;;;;30.23;67.64;97201.75;5110850;28;20593;-77
2023/06/03 09:47:17;;;;;;;16.60;7.15;;;;;;;31.12;69.62;97224.16;5111518;28;20031;-77
2023/06/03 09:50:04;;;;;;;10.65;6.50;;;;;;;32.82;59.85;97219.75;5110868;28;20084;-78
2023/06/03 09:52:34;;;;;;;9.70;4.95;;;;;;;32.84;55.19;97204.56;5112182;28;20042;-77
2023/06/03 09:55:01;;;;;;;8.35;6.93;;;;;;;33.01;54.43;97197.16;5112367;28;20399;-76
2023/06/03 09:57:27;;;;;;;6.68;4.75;;;;;;;32.57;56.83;97193.16;5110666;28;20515;-76
2023/06/03 10:00:11;;;;;;;11.07;4.78;;;;;;;32.60;55.89;97192.69;5093780;28;20111;-76
2023/06/03 10:02:46;;;;;;;6.65;4.38;;;;;;;32.07;56.11;97173.41;5093346;28;20054;-76
2023/06/03 10:05:29;;;;;;;8.93;5.07;;;;;;;32.17;59.73;97189.41;5094358;28;20058;-76
2023/06/03 10:07:55;;;;;;;11.25;5.43;;;;;;;31.40;62.48;97180.19;5093584;28;20054;-76
2023/06/03 10:10:20;;;;;;;8.57;5.50;;;;;;;32.07;61.39;97186.38;5093691;28;20497;-75
2023/06/03 10:12:48;;;;;;;5.47;4.35;;;;;;;31.56;59.64;97179.50;5093610;28;20028;-75
2023/06/03 10:15:39;;;;;;;8.07;4.47;;;;;;;31.06;63.94;97186.41;5111813;28;20471;-75
2023/06/03 10:18:06;;;;;;;10.50;4.03;;;;;;;32.01;59.61;97190.06;5110090;28;20112;-75
2023/06/03 10:20:35;;;;;;;6.35;4.57;;;;;;;30.59;63.82;97179.72;5110341;28;20281;-75
2023/06/03 10:23:06;;;;;;;10.73;5.28;;;;;;;29.32;72.59;97179.31;5111627;28;20023;-75
2023/06/03 10:25:37;;;;;;;9.30;5.05;;;;;;;28.19;83.99;97197.28;5093105;28;20032;-76
2023/06/03 10:28:03;;;;;;;6.63;5.13;;;;;;;27.17;93.64;97215.97;5111526;28;20376;-75
2023/06/03 10:30:30;;;;;;;6.88;5.07;;;;;;;26.35;99.36;97231.63;5110309;28;20023;-75
2023/06/03 10:32:57;;;;;;;9.70;5.20;;;;;;;25.86;100.00;97240.72;5110188;28;20031;-74
2023/06/03 10:35:24;;;;;;;8.63;5.32;;;;;;;24.91;100.00;97244.75;5110240;28;20114;-77
2023/06/03 10:37:50;;;;;;;9.02;5.80;;;;;;;24.51;100.00;97251.56;5110157;28;20526;-76
2023/06/03 10:40:16;;;;;;;6.57;5.28;;;;;;;24.08;100.00;97260.56;5109675;28;20035;-75
2023/06/03 10:42:42;;;;;;;13.05;6.22;;;;;;;23.44;100.00;97278.34;5110036;28;20027;-76
2023/06/03 10:45:08;;;;;;;14.88;6.65;;;;;;;22.42;100.00;97290.25;5110186;28;20468;-75
2023/06/03 10:47:38;;;;;;;3.72;0.95;;;;;;;21.48;100.00;97299.97;5110098;28;20071;-74
2023/06/03 10:50:27;;;;;;;0.40;0.40;;;;;;;20.44;100.00;97326.66;5110233;28;20062;-74
2023/06/03 10:52:55;;;;;;;0.43;0.43;;;;;;;19.51;100.00;97374.41;5111150;28;20035;-75
2023/06/03 10:55:45;;;;;;;1.35;0.90;;;;;;;19.21;100.00;97410.88;5110106;28;20031;-74
2023/06/03 10:58:15;;;;;;;7.05;1.23;;;;;;;19.20;100.00;97433.56;5110341;28;20030;-74
2023/06/03 11:00:55;;;;;;;0.70;0.70;;;;;;;19.22;100.00;97451.41;5110184;28;20535;-75
2023/06/03 11:03:21;;;;;;;2.33;1.48;;;;;;;19.11;100.00;97456.16;5110077;28;20414;-74
2023/06/03 11:05:50;;;;;;;1.52;0.80;;;;;;;18.69;100.00;97451.22;5111005;28;20039;-75
2023/06/03 11:08:53;;;;;;;2.40;1.35;;;;;;;18.50;100.00;97444.97;5109755;28;20039;-74
2023/06/03 11:11:44;;;;;;;10.77;1.75;;;;;;;18.43;100.00;97458.22;5110898;28;20061;-74
2023/06/03 11:14:32;;;;;;;0.75;0.75;;;;;;;18.56;100.00;97469.63;5110718;28;20032;-75
2023/06/03 11:16:58;;;;;;;0.35;0.35;;;;;;;18.46;100.00;97465.22;5109569;28;20497;-75
2023/06/03 11:19:33;;;;;;;0.52;0.50;;;;;;;18.56;100.00;97474.19;5109106;28;20067;-74
2023/06/03 11:22:04;;;;;;;1.55;0.80;;;;;;;18.58;100.00;97458.66;5110733;28;20036;-74
2023/06/03 11:24:38;;;;;;;2.60;1.75;;;;;;;18.72;100.00;97464.47;5111024;28;20023;-74
2023/06/03 11:27:10;;;;;;;1.10;0.90;;;;;;;18.76;100.00;97465.88;5110591;28;20022;-75
2023/06/03 11:29:51;;;;;;;2.42;1.27;;;;;;;18.94;100.00;97457.81;5113953;28;20106;-74
2023/06/03 11:32:17;;;;;;;1.25;0.75;;;;;;;19.02;100.00;97465.19;5114511;28;20482;-74